Time;durP1;ratioP1;P1;durP2;ratioP2;P2;SDS_P1;SDS_P2;PMS_P1;PMS_P2;Temp;Humidity;BMP_temperature;BMP_pressure;BME280_temperature;BME280_humidity;BME280_pressure;Samples;Min_cycle;Max_cycle;Signal;HPM_P1;HPM_P2
2024/02/05 00:03:12;;;;;;;0.20;0.10;;;;;;;10.86;75.47;100881.03;10422581;28;20045;-61
2024/02/05 00:08:13;;;;;;;0.05;0.05;;;;;;;10.94;74.66;100875.69;10426892;28;20056;-61
2024/02/05 00:13:16;;;;;;;0.43;0.43;;;;;;;11.01;74.61;100884.75;10422618;28;20049;-62
2024/02/05 00:18:17;;;;;;;0.10;0.03;;;;;;;11.00;75.29;100880.41;10422305;28;20064;-60
2024/02/05 00:23:19;;;;;;;3.03;0.15;;;;;;;10.90;75.34;100877.03;10426860;28;20052;-61
2024/02/05 00:28:20;;;;;;;0.40;0.10;;;;;;;10.82;75.95;100875.16;10423060;28;20048;-61
2024/02/05 00:33:22;;;;;;;0.30;0.10;;;;;;;10.76;75.80;100875.78;10420966;28;20044;-61
2024/02/05 00:38:23;;;;;;;0.20;0.10;;;;;;;10.61;76.53;100864.00;10425055;28;20488;-61
2024/02/05 00:43:24;;;;;;;0.20;0.10;;;;;;;10.60;76.54;100862.31;10425551;28;20570;-61
2024/02/05 00:48:26;;;;;;;0.20;0.20;;;;;;;10.67;76.46;100876.78;10406314;28;20081;-61
2024/02/05 00:53:27;;;;;;;0.20;0.10;;;;;;;10.72;76.53;100877.13;10422033;28;20134;-61
2024/02/05 00:58:29;;;;;;;0.30;0.30;;;;;;;10.84;76.41;100883.03;10425905;28;20037;-61
2024/02/05 01:03:31;;;;;;;1.58;0.10;;;;;;;10.87;76.41;100869.28;10420979;28;20045;-61
2024/02/05 01:08:32;;;;;;;0.28;0.20;;;;;;;10.90;76.26;100869.78;10418284;28;20072;-61
2024/02/05 01:13:34;;;;;;;0.10;0.03;;;;;;;10.99;76.06;100869.81;10409216;28;20442;-61
2024/02/05 01:18:36;;;;;;;0.03;0.00;;;;;;;11.05;76.19;100882.59;10417630;28;20060;-60
2024/02/05 01:23:38;;;;;;;0.30;0.10;;;;;;;11.10;76.24;100883.78;10424530;28;20044;-60
2024/02/05 01:28:39;;;;;;;0.22;0.10;;;;;;;11.15;75.86;100875.19;10422215;28;20503;-60
2024/02/05 01:33:41;;;;;;;0.00;0.00;;;;;;;11.20;75.75;100875.56;10419633;28;20064;-60
2024/02/05 01:38:43;;;;;;;0.10;0.10;;;;;;;11.29;75.42;100877.25;10420568;28;20053;-60
2024/02/05 01:43:44;;;;;;;1.65;0.05;;;;;;;11.33;75.57;100866.97;10426130;28;20459;-60
2024/02/05 01:48:50;;;;;;;0.00;0.00;;;;;;;11.36;75.20;100873.88;10418048;28;20060;-60
2024/02/05 01:53:54;;;;;;;0.35;0.00;;;;;;;11.42;75.00;100871.34;10422400;28;20049;-61
2024/02/05 01:58:58;;;;;;;0.20;0.10;;;;;;;11.46;75.22;100870.00;10418833;28;20149;-60
2024/02/05 02:04:00;;;;;;;0.35;0.00;;;;;;;11.51;74.82;100877.56;10415305;28;20134;-60
2024/02/05 02:09:03;;;;;;;0.57;0.00;;;;;;;11.54;74.81;100866.47;10416150;28;20057;-61
2024/02/05 02:14:04;;;;;;;0.17;0.03;;;;;;;11.58;74.31;100858.88;10421539;28;20446;-60
2024/02/05 02:19:41;;;;;;;0.10;0.00;;;;;;;11.58;74.50;100851.63;10421559;28;20429;-61
2024/02/05 02:24:44;;;;;;;0.00;0.00;;;;;;;11.62;74.25;100847.59;10408842;28;20531;-60
2024/02/05 02:29:46;;;;;;;0.47;0.00;;;;;;;11.70;73.77;100855.66;10418077;28;20073;-60
2024/02/05 02:34:52;;;;;;;0.10;0.00;;;;;;;11.74;73.73;100842.69;10404355;28;20073;-60
2024/02/05 02:40:09;;;;;;;0.10;0.00;;;;;;;11.74;73.60;100845.38;10422774;28;20052;-60
2024/02/05 02:45:12;;;;;;;0.43;0.00;;;;;;;11.75;73.24;100839.00;10417297;28;20397;-59
2024/02/05 02:50:14;;;;;;;0.45;0.00;;;;;;;11.80;73.16;100846.56;10418873;28;20140;-60
2024/02/05 02:55:15;;;;;;;0.00;0.00;;;;;;;11.81;73.15;100851.78;10419523;28;20041;-59
2024/02/05 03:00:17;;;;;;;0.10;0.00;;;;;;;11.79;73.27;100850.25;10417796;28;20353;-59
2024/02/05 03:05:19;;;;;;;0.13;0.10;;;;;;;11.80;73.34;100851.94;10413432;28;20107;-59
2024/02/05 03:10:20;;;;;;;0.38;0.00;;;;;;;11.81;73.09;100864.38;10394710;28;20554;-60
2024/02/05 03:15:22;;;;;;;0.10;0.00;;;;;;;11.87;72.74;100847.56;10415433;28;20589;-60
2024/02/05 03:20:41;;;;;;;0.57;0.10;;;;;;;11.88;72.65;100860.00;10424488;28;20060;-60
2024/02/05 03:25:42;;;;;;;0.47;0.10;;;;;;;11.89;72.69;100851.78;10427732;28;20121;-60
2024/02/05 03:30:44;;;;;;;0.08;0.08;;;;;;;11.89;72.84;100865.25;10426390;28;20049;-61
2024/02/05 03:35:45;;;;;;;0.00;0.00;;;;;;;11.88;72.36;100868.91;10425120;28;20434;-60
2024/02/05 03:40:47;;;;;;;1.25;0.52;;;;;;;11.94;72.11;100871.97;10429656;28;20049;-60
2024/02/05 03:45:48;;;;;;;0.47;0.08;;;;;;;11.93;72.07;100872.97;10423050;28;20140;-60
2024/02/05 03:50:50;;;;;;;0.20;0.03;;;;;;;11.93;72.37;100873.84;10425113;28;20052;-60
2024/02/05 03:55:51;;;;;;;0.35;0.10;;;;;;;11.96;72.06;100872.66;10425328;28;20566;-60
2024/02/05 04:00:53;;;;;;;1.35;0.10;;;;;;;12.00;71.91;100872.13;10421574;28;20128;-60
2024/02/05 04:05:55;;;;;;;1.85;0.08;;;;;;;12.00;71.92;100874.81;10418606;28;20450;-61
2024/02/05 04:10:57;;;;;;;0.10;0.10;;;;;;;12.01;71.68;100875.69;10421595;28;20057;-61
2024/02/05 04:15:58;;;;;;;0.98;0.05;;;;;;;12.04;71.96;100875.31;10419701;28;20055;-61
2024/02/05 04:21:03;;;;;;;0.20;0.10;;;;;;;11.99;71.61;100893.88;10425880;28;20059;-60
2024/02/05 04:26:18;;;;;;;1.15;0.10;;;;;;;11.97;71.74;100883.25;10427086;28;20111;-61
2024/02/05 04:31:20;;;;;;;2.70;0.17;;;;;;;11.99;71.71;100891.19;10423747;28;20045;-61
2024/02/05 04:36:22;;;;;;;1.65;0.10;;;;;;;11.95;71.51;100887.13;10405626;28;20508;-61
2024/02/05 04:41:24;;;;;;;2.30;0.17;;;;;;;11.93;71.66;100891.84;10408643;28;20059;-61
2024/02/05 04:46:25;;;;;;;1.33;0.20;;;;;;;11.95;71.61;100885.28;10429065;28;20077;-61
2024/02/05 04:51:27;;;;;;;0.38;0.10;;;;;;;11.89;71.73;100884.13;10419647;28;20041;-60
2024/02/05 04:56:29;;;;;;;1.20;0.10;;;;;;;11.94;71.52;100896.22;10421067;28;20047;-60
2024/02/05 05:01:30;;;;;;;0.30;0.20;;;;;;;11.90;71.45;100890.34;10422249;28;20491;-60
2024/02/05 05:06:32;;;;;;;1.60;0.10;;;;;;;11.84;71.13;100893.69;10403261;28;20046;-60
2024/02/05 05:11:34;;;;;;;0.77;0.10;;;;;;;11.82;71.53;100890.31;10420741;28;20128;-60
2024/02/05 05:16:35;;;;;;;0.43;0.43;;;;;;;11.76;71.03;100893.72;10420718;28;20052;-60
2024/02/05 05:21:36;;;;;;;0.47;0.10;;;;;;;11.66;71.25;100893.88;10418502;28;20428;-60
2024/02/05 05:26:38;;;;;;;0.57;0.10;;;;;;;11.70;70.93;100895.22;10419835;28;20084;-61
2024/02/05 05:31:39;;;;;;;0.50;0.20;;;;;;;11.66;71.04;100900.09;10419178;28;20048;-60
2024/02/05 05:36:41;;;;;;;0.55;0.10;;;;;;;11.59;71.20;100898.25;10420374;28;20160;-60
2024/02/05 05:41:42;;;;;;;6.18;0.20;;;;;;;11.50;70.80;100894.72;10421219;28;20083;-60
2024/02/05 05:46:44;;;;;;;1.55;0.30;;;;;;;11.53;71.21;100889.00;10418655;28;20140;-60
2024/02/05 05:51:45;;;;;;;1.67;0.20;;;;;;;11.54;70.77;100890.69;10419762;28;20395;-60
2024/02/05 05:56:47;;;;;;;1.45;0.30;;;;;;;11.50;70.63;100879.41;10421360;28;20399;-60
2024/02/05 06:01:48;;;;;;;8.40;0.80;;;;;;;11.53;70.90;100889.00;10418642;28;20053;-59
2024/02/05 06:06:49;;;;;;;1.15;0.30;;;;;;;11.60;70.75;100892.69;10419535;28;20564;-60
2024/02/05 06:11:51;;;;;;;6.30;0.50;;;;;;;11.59;70.70;100884.78;10413599;28;20061;-59
2024/02/05 06:16:52;;;;;;;1.48;0.20;;;;;;;11.63;70.52;100891.50;10417547;28;20083;-60
2024/02/05 06:21:54;;;;;;;2.70;0.30;;;;;;;11.56;70.63;100896.75;10421526;28;20050;-59
2024/02/05 06:26:56;;;;;;;2.45;0.40;;;;;;;11.58;70.53;100889.34;10417573;28;20069;-59
2024/02/05 06:31:58;;;;;;;0.65;0.20;;;;;;;11.58;70.35;100888.50;10423713;28;20053;-59
2024/02/05 06:36:59;;;;;;;1.00;0.30;;;;;;;11.54;70.37;100888.00;10423341;28;20060;-60
2024/02/05 06:42:01;;;;;;;2.95;0.50;;;;;;;11.47;70.72;100879.75;10421385;28;20045;-59
2024/02/05 06:47:14;;;;;;;3.47;0.50;;;;;;;11.52;70.35;100895.41;10481276;23;20064;-93
2024/02/05 06:52:41;;;;;;;1.10;0.28;;;;;;;11.49;70.45;100901.97;10509837;23;20045;-65
2024/02/05 06:57:43;;;;;;;1.92;0.60;;;;;;;11.46;70.48;100899.59;10505505;28;20078;-67
2024/02/05 07:02:44;;;;;;;6.45;1.30;;;;;;;11.41;70.46;100899.25;10509222;28;20048;-70
2024/02/05 07:07:46;;;;;;;8.85;0.75;;;;;;;11.36;70.35;100893.56;10549734;22;20045;-69
2024/02/05 07:12:47;;;;;;;2.92;0.50;;;;;;;11.32;70.40;100901.13;10448031;28;20128;-70
2024/02/05 07:17:49;;;;;;;5.75;0.70;;;;;;;11.29;70.21;100903.28;10421301;28;20373;-68
2024/02/05 07:22:53;;;;;;;6.63;0.63;;;;;;;11.29;70.42;100906.84;10433711;28;20049;-71
2024/02/05 07:27:55;;;;;;;3.22;0.63;;;;;;;11.30;70.33;100907.69;10438719;28;20055;-71
2024/02/05 07:32:56;;;;;;;5.90;0.63;;;;;;;11.33;70.24;100920.78;10436350;28;20065;-72
2024/02/05 07:37:58;;;;;;;5.25;1.52;;;;;;;11.35;70.20;100910.69;10433221;28;20436;-68
2024/02/05 07:42:59;;;;;;;7.60;0.57;;;;;;;11.41;70.09;100910.03;10439155;28;20080;-73
2024/02/05 07:48:01;;;;;;;6.68;0.63;;;;;;;11.41;70.20;100914.56;10444910;28;20156;-71
2024/02/05 07:53:03;;;;;;;5.47;0.70;;;;;;;11.45;70.25;100918.63;10461584;28;20045;-67
2024/02/05 07:58:06;;;;;;;5.65;0.60;;;;;;;11.49;69.82;100917.25;10481968;28;20053;-68
2024/02/05 08:03:08;;;;;;;4.43;0.88;;;;;;;11.48;70.04;100921.81;10481238;28;20118;-68
2024/02/05 08:08:10;;;;;;;1.67;0.43;;;;;;;11.52;69.85;100916.94;10769393;23;20072;-67
2024/02/05 08:13:12;;;;;;;10.32;1.23;;;;;;;11.55;69.56;100924.66;10449985;28;20053;-68
2024/02/05 08:18:13;;;;;;;4.65;0.80;;;;;;;11.66;69.22;100924.34;10404977;28;20092;-68
2024/02/05 08:23:15;;;;;;;5.40;1.23;;;;;;;11.73;69.02;100926.34;10404445;28;20392;-68
2024/02/05 08:28:17;;;;;;;4.47;1.85;;;;;;;11.76;69.05;100934.94;10403350;28;20547;-68
2024/02/05 08:33:19;;;;;;;4.60;1.35;;;;;;;11.81;68.56;100926.34;10401953;28;20049;-68
2024/02/05 08:38:21;;;;;;;9.68;0.80;;;;;;;11.87;68.70;100917.59;10402216;28;20077;-68
2024/02/05 08:43:23;;;;;;;9.65;1.70;;;;;;;11.90;68.22;100918.13;10403262;28;20045;-68
2024/02/05 08:48:25;;;;;;;6.40;1.13;;;;;;;11.99;68.03;100926.22;10402177;28;20939;-68
2024/02/05 08:53:27;;;;;;;8.18;0.70;;;;;;;12.00;67.83;100914.41;10384291;28;20037;-68
2024/02/05 08:58:28;;;;;;;8.93;0.93;;;;;;;12.03;67.75;100908.69;10399399;28;20038;-68
2024/02/05 09:03:30;;;;;;;6.93;2.00;;;;;;;12.05;67.39;100915.56;10401032;28;20121;-68
2024/02/05 09:08:33;;;;;;;3.92;1.08;;;;;;;12.08;67.44;100909.00;10400203;28;20128;-68
2024/02/05 09:13:35;;;;;;;7.20;1.17;;;;;;;12.05;66.97;100899.41;10394466;28;20041;-67
2024/02/05 09:18:37;;;;;;;7.53;1.20;;;;;;;12.15;67.06;100895.69;10444911;28;20072;-70
2024/02/05 09:23:39;;;;;;;6.15;1.83;;;;;;;12.19;66.70;100889.78;10443744;28;20068;-70
2024/02/05 09:28:42;;;;;;;4.22;0.90;;;;;;;12.34;66.34;100910.59;10437609;28;20056;-69
2024/02/05 09:33:44;;;;;;;9.25;1.40;;;;;;;12.40;65.67;100897.28;10421390;28;20412;-69
2024/02/05 09:38:45;;;;;;;6.50;0.88;;;;;;;12.49;65.27;100907.00;10446036;28;20117;-70
2024/02/05 09:43:50;;;;;;;6.55;0.65;;;;;;;12.61;65.21;100885.06;10442501;28;20069;-71
2024/02/05 09:48:53;;;;;;;5.80;1.17;;;;;;;12.73;64.92;100894.41;10440802;28;20123;-68
2024/02/05 09:53:57;;;;;;;7.18;1.13;;;;;;;12.71;64.46;100882.97;10443065;28;20057;-68
2024/02/05 09:59:15;;;;;;;8.15;1.05;;;;;;;12.81;64.02;100891.69;10442372;28;20113;-70
2024/02/05 10:04:19;;;;;;;4.18;0.68;;;;;;;12.88;63.85;100889.97;10464557;23;20049;-89
2024/02/05 10:09:23;;;;;;;5.30;0.90;;;;;;;12.98;63.62;100891.59;10600571;23;20468;-69
2024/02/05 10:14:25;;;;;;;9.18;1.45;;;;;;;12.99;63.16;100896.78;10531504;22;20061;-89
2024/02/05 10:19:30;;;;;;;3.20;1.10;;;;;;;12.98;62.83;100905.91;10423851;28;20052;-88
2024/02/05 10:24:34;;;;;;;7.88;0.85;;;;;;;13.00;62.62;100894.97;10456728;28;20065;-91
2024/02/05 10:29:38;;;;;;;7.10;0.88;;;;;;;13.04;62.21;100889.00;10514907;22;20055;-66
2024/02/05 10:34:39;;;;;;;3.72;0.80;;;;;;;13.19;61.93;100872.03;10421503;28;20041;-70
2024/02/05 10:39:41;;;;;;;5.03;0.68;;;;;;;13.27;61.91;100866.59;10432116;28;20080;-69
2024/02/05 10:44:42;;;;;;;4.85;1.00;;;;;;;13.24;61.72;100867.78;10427341;28;20065;-69
2024/02/05 10:49:44;;;;;;;5.75;0.80;;;;;;;13.32;61.26;100858.81;10411137;28;20104;-72
2024/02/05 10:54:48;;;;;;;3.50;0.50;;;;;;;13.40;61.04;100866.00;10408262;28;20121;-68
2024/02/05 10:59:50;;;;;;;10.50;1.65;;;;;;;13.51;61.04;100862.88;10418283;28;22341;-69
2024/02/05 11:04:54;;;;;;;3.88;1.17;;;;;;;13.49;60.37;100859.53;10414120;28;20076;-68
2024/02/05 11:10:00;;;;;;;6.82;1.05;;;;;;;13.54;60.29;100857.09;10398241;28;20080;-67
2024/02/05 11:15:06;;;;;;;6.55;0.90;;;;;;;13.69;60.17;100847.16;10414505;28;20054;-69
2024/02/05 11:20:10;;;;;;;8.00;0.65;;;;;;;13.71;60.11;100840.75;10414143;28;20114;-67
2024/02/05 11:25:14;;;;;;;2.42;0.70;;;;;;;13.79;60.02;100837.94;10399505;28;20049;-68
2024/02/05 11:30:17;;;;;;;8.65;1.48;;;;;;;13.73;59.65;100844.94;10375659;28;20508;-67
2024/02/05 11:35:27;;;;;;;3.70;0.52;;;;;;;13.75;59.47;100847.47;10404387;28;20333;-69
2024/02/05 11:40:30;;;;;;;4.85;0.90;;;;;;;13.89;59.59;100830.41;10405649;28;20050;-67
2024/02/05 11:45:35;;;;;;;8.25;0.90;;;;;;;13.98;59.15;100831.13;10397587;28;20045;-64
2024/02/05 11:50:37;;;;;;;5.75;0.70;;;;;;;14.00;59.31;100829.09;10413516;28;20037;-65
2024/02/05 11:55:38;;;;;;;8.38;0.90;;;;;;;14.08;58.83;100821.75;10438823;28;20095;-64
2024/02/05 12:00:40;;;;;;;4.10;0.95;;;;;;;14.04;58.63;100823.16;10444626;28;20025;-65
2024/02/05 12:05:42;;;;;;;6.32;1.00;;;;;;;14.15;58.64;100823.69;10561477;23;20045;-67
2024/02/05 12:10:44;;;;;;;7.82;0.75;;;;;;;14.15;58.47;100802.91;10490651;28;20088;-66
2024/02/05 12:15:45;;;;;;;6.15;0.77;;;;;;;14.15;58.35;100807.47;10487389;28;20135;-66
2024/02/05 12:20:56;;;;;;;5.03;1.42;;;;;;;14.11;57.78;100808.88;10487183;28;20024;-66
2024/02/05 12:25:58;;;;;;;7.25;1.45;;;;;;;14.17;57.92;100795.44;10487756;28;20060;-66
2024/02/05 12:30:59;;;;;;;5.30;1.75;;;;;;;14.24;57.61;100806.34;10464559;28;20251;-66
2024/02/05 12:36:03;;;;;;;2.10;0.52;;;;;;;14.29;57.34;100783.09;10464322;28;20070;-66
2024/02/05 12:41:05;;;;;;;9.80;0.90;;;;;;;14.40;57.24;100775.53;10466678;28;20112;-67
2024/02/05 12:46:07;;;;;;;4.97;0.80;;;;;;;14.43;56.77;100778.69;10489059;28;20029;-66
2024/02/05 12:51:09;;;;;;;5.45;1.02;;;;;;;14.35;57.31;100773.38;10485641;28;20053;-65
2024/02/05 12:56:11;;;;;;;6.95;1.17;;;;;;;14.38;56.65;100772.19;10446127;28;20103;-66
2024/02/05 13:01:15;;;;;;;4.88;1.25;;;;;;;14.38;56.50;100773.03;10427802;28;20048;-67
2024/02/05 13:06:23;;;;;;;8.45;0.88;;;;;;;14.46;56.46;100758.53;10444572;28;20076;-66
2024/02/05 13:11:30;;;;;;;7.95;0.82;;;;;;;14.45;56.48;100759.56;10443880;28;20099;-67
2024/02/05 13:16:31;;;;;;;6.20;0.88;;;;;;;14.51;56.59;100755.25;10445713;28;20052;-68
2024/02/05 13:21:33;;;;;;;5.00;1.15;;;;;;;14.46;56.64;100763.94;10424969;28;20046;-67
2024/02/05 13:26:39;;;;;;;5.90;1.08;;;;;;;14.39;56.41;100746.81;10435769;28;20127;-66
2024/02/05 13:31:40;;;;;;;11.75;1.10;;;;;;;14.41;56.60;100737.47;10428100;28;20087;-67
2024/02/05 13:36:42;;;;;;;11.80;1.15;;;;;;;14.35;56.61;100727.41;10439628;28;20110;-66
2024/02/05 13:41:43;;;;;;;5.45;0.90;;;;;;;14.31;56.58;100736.09;10443115;28;20057;-66
2024/02/05 13:46:45;;;;;;;10.25;1.33;;;;;;;14.31;56.41;100738.81;10463883;28;20056;-66
2024/02/05 13:51:46;;;;;;;4.38;0.73;;;;;;;14.21;56.31;100718.31;10574672;23;20067;-89
2024/02/05 13:56:52;;;;;;;5.07;0.93;;;;;;;14.29;56.63;100718.19;10460901;28;20037;-91
2024/02/05 14:01:54;;;;;;;9.57;1.23;;;;;;;14.13;56.71;100725.72;10455017;28;20033;-89
2024/02/05 14:06:57;;;;;;;6.05;0.70;;;;;;;14.04;56.48;100715.00;10445789;28;20060;-90
2024/02/05 14:12:08;;;;;;;2.85;0.70;;;;;;;14.04;56.58;100716.84;10458826;28;20026;-89
2024/02/05 14:17:11;;;;;;;4.65;0.90;;;;;;;13.93;56.64;100715.50;10455463;28;20046;-89
2024/02/05 14:22:24;;;;;;;8.55;1.73;;;;;;;13.88;56.38;100697.16;10407908;28;20057;-89
2024/02/05 14:27:27;;;;;;;8.57;1.52;;;;;;;13.80;56.54;100702.66;10398912;28;20038;-89
2024/02/05 14:32:30;;;;;;;4.43;0.80;;;;;;;13.83;56.23;100701.44;10416256;28;20061;-89
2024/02/05 14:37:33;;;;;;;14.60;0.95;;;;;;;14.00;56.25;100688.53;10418335;28;20073;-90
2024/02/05 14:42:34;;;;;;;6.88;1.55;;;;;;;14.13;56.14;100685.16;10438640;23;20049;-68
2024/02/05 14:47:36;;;;;;;8.98;0.80;;;;;;;14.24;55.94;100682.78;10454160;28;20138;-66
2024/02/05 14:52:37;;;;;;;3.15;0.93;;;;;;;14.21;55.91;100675.06;10461625;28;20048;-67
2024/02/05 14:57:40;;;;;;;10.13;1.52;;;;;;;14.12;56.08;100689.72;10464568;28;20102;-68
2024/02/05 15:02:45;;;;;;;6.85;0.80;;;;;;;14.12;55.98;100680.75;10460782;28;20052;-65
2024/02/05 15:07:46;;;;;;;10.57;2.25;;;;;;;14.15;56.21;100669.59;10460435;28;20048;-68
2024/02/05 15:12:50;;;;;;;8.90;1.60;;;;;;;13.93;56.01;100668.72;10448621;28;20079;-68
2024/02/05 15:17:52;;;;;;;7.40;1.83;;;;;;;13.77;56.88;100659.81;10448022;28;20061;-68
2024/02/05 15:22:53;;;;;;;10.70;1.80;;;;;;;13.64;56.73;100663.16;10454104;28;20131;-68
2024/02/05 15:27:55;;;;;;;9.55;1.45;;;;;;;13.51;57.12;100671.13;10451849;28;20582;-67
2024/02/05 15:32:56;;;;;;;4.90;2.42;;;;;;;13.50;57.09;100658.63;10454691;28;20095;-66
2024/02/05 15:37:58;;;;;;;6.78;1.17;;;;;;;13.31;57.23;100678.09;10457616;28;20053;-68
2024/02/05 15:42:59;;;;;;;6.80;1.17;;;;;;;13.10;57.66;100663.44;10450641;28;20163;-68
2024/02/05 15:48:01;;;;;;;5.50;1.00;;;;;;;12.93;57.77;100661.91;10453187;28;20079;-69
2024/02/05 15:53:02;;;;;;;6.80;1.30;;;;;;;12.75;58.29;100664.97;10459661;28;20049;-68
2024/02/05 15:58:06;;;;;;;7.97;1.20;;;;;;;12.57;58.49;100657.19;10456332;28;20110;-68
2024/02/05 16:03:11;;;;;;;8.73;1.42;;;;;;;12.37;58.78;100664.94;10452204;28;20061;-68
2024/02/05 16:08:13;;;;;;;6.45;0.90;;;;;;;12.28;58.83;100661.44;10447825;28;20498;-68
2024/02/05 16:13:14;;;;;;;6.13;0.77;;;;;;;12.20;59.07;100667.72;10451442;28;20503;-68
2024/02/05 16:18:16;;;;;;;12.90;1.48;;;;;;;12.00;59.33;100666.53;10449018;28;20604;-68
2024/02/05 16:23:17;;;;;;;6.63;0.85;;;;;;;11.84;59.56;100662.03;10454871;28;20220;-68
2024/02/05 16:28:19;;;;;;;12.10;1.23;;;;;;;11.67;59.74;100672.03;10447394;28;20057;-68
2024/02/05 16:33:21;;;;;;;5.93;1.45;;;;;;;11.51;60.47;100683.72;10450021;28;20053;-68
2024/02/05 16:38:22;;;;;;;13.10;3.05;;;;;;;11.40;60.50;100692.19;10452817;28;20059;-68
2024/02/05 16:43:24;;;;;;;5.93;1.10;;;;;;;11.28;61.13;100680.94;10453413;28;20053;-65
2024/02/05 16:48:29;;;;;;;11.95;1.52;;;;;;;11.19;61.17;100698.94;10442870;28;20064;-65
2024/02/05 16:53:31;;;;;;;12.90;1.45;;;;;;;11.09;61.45;100699.13;10445076;28;20043;-64
2024/02/05 16:58:33;;;;;;;4.93;1.65;;;;;;;10.99;61.33;100700.34;10427201;28;20049;-65
2024/02/05 17:03:35;;;;;;;13.52;1.55;;;;;;;10.87;62.06;100703.38;10453600;28;20048;-63
2024/02/05 17:08:36;;;;;;;11.15;1.92;;;;;;;10.80;61.84;100699.69;10446065;28;20062;-65
2024/02/05 17:13:38;;;;;;;5.20;1.70;;;;;;;10.72;62.37;100688.91;10426244;28;20045;-64
2024/02/05 17:18:40;;;;;;;8.90;1.10;;;;;;;10.63;62.28;100680.03;10446570;28;20076;-65
2024/02/05 17:23:42;;;;;;;9.93;1.45;;;;;;;10.57;62.63;100669.09;10448595;28;20414;-64
2024/02/05 17:28:43;;;;;;;11.77;0.90;;;;;;;10.46;62.54;100676.47;10447719;28;20057;-65
2024/02/05 17:33:45;;;;;;;9.95;1.92;;;;;;;10.41;62.65;100657.34;10445715;28;20091;-63
2024/02/05 17:38:46;;;;;;;9.25;1.38;;;;;;;10.35;63.14;100663.38;10445204;28;20073;-66
2024/02/05 17:43:48;;;;;;;5.97;1.52;;;;;;;10.27;63.53;100655.28;10444183;28;20376;-67
2024/02/05 17:48:50;;;;;;;9.88;1.58;;;;;;;10.22;63.21;100654.94;10448838;28;20073;-66
2024/02/05 17:53:51;;;;;;;8.25;1.85;;;;;;;10.12;63.85;100652.41;10440362;28;20475;-65
2024/02/05 17:58:53;;;;;;;8.00;1.55;;;;;;;10.04;64.08;100647.03;10447302;28;20530;-66
2024/02/05 18:03:55;;;;;;;7.68;1.20;;;;;;;10.03;63.76;100653.38;10438223;28;20053;-66
2024/02/05 18:08:57;;;;;;;9.38;1.92;;;;;;;9.98;63.84;100639.63;10440468;28;20064;-65
2024/02/05 18:13:58;;;;;;;16.67;1.95;;;;;;;9.90;64.07;100651.19;10439264;28;20084;-65
2024/02/05 18:19:00;;;;;;;5.53;1.95;;;;;;;9.81;64.23;100644.09;10452804;28;20048;-65
2024/02/05 18:24:02;;;;;;;12.23;1.73;;;;;;;9.74;64.85;100630.50;10447643;28;20048;-65
2024/02/05 18:29:04;;;;;;;10.27;1.50;;;;;;;9.74;64.55;100630.50;10443808;28;20073;-65
2024/02/05 18:34:06;;;;;;;13.98;1.40;;;;;;;9.69;64.69;100625.63;10445032;28;20044;-65
2024/02/05 18:39:07;;;;;;;5.75;1.13;;;;;;;9.64;64.71;100632.50;10447648;28;20057;-65
2024/02/05 18:44:09;;;;;;;5.95;2.10;;;;;;;9.58;65.26;100630.44;10441767;28;20060;-66
2024/02/05 18:49:10;;;;;;;11.65;1.88;;;;;;;9.56;64.91;100632.44;10436435;28;20045;-65
2024/02/05 18:54:12;;;;;;;7.97;1.92;;;;;;;9.49;65.10;100625.06;10447636;28;20041;-65
2024/02/05 18:59:14;;;;;;;19.17;3.13;;;;;;;9.44;65.55;100622.03;10442789;28;20045;-65
2024/02/05 19:04:15;;;;;;;12.90;1.85;;;;;;;9.40;65.83;100619.81;10441886;28;20047;-65
2024/02/05 19:09:17;;;;;;;13.88;2.20;;;;;;;9.36;65.88;100627.38;10442742;28;20057;-66
2024/02/05 19:14:18;;;;;;;14.40;1.75;;;;;;;9.32;65.97;100628.66;10450825;28;20064;-65
2024/02/05 19:19:20;;;;;;;9.68;2.15;;;;;;;9.29;66.27;100631.69;10456676;28;20049;-66
2024/02/05 19:24:22;;;;;;;8.52;2.03;;;;;;;9.26;66.07;100632.00;10442720;28;20543;-65
2024/02/05 19:29:27;;;;;;;17.85;1.98;;;;;;;9.25;66.08;100636.53;10451553;28;20052;-64
2024/02/05 19:34:29;;;;;;;9.20;2.72;;;;;;;9.28;66.18;100638.03;10439682;28;20530;-67
2024/02/05 19:39:31;;;;;;;6.72;1.70;;;;;;;9.23;66.05;100646.56;10443240;28;20130;-65
2024/02/05 19:44:33;;;;;;;16.63;3.72;;;;;;;9.21;66.10;100650.44;10449458;28;20044;-66
2024/02/05 19:49:35;;;;;;;17.05;2.15;;;;;;;9.17;66.17;100646.38;10447524;28;20052;-63
2024/02/05 19:54:36;;;;;;;7.57;1.90;;;;;;;9.18;66.14;100637.31;10425690;28;20042;-64
2024/02/05 19:59:38;;;;;;;8.65;3.25;;;;;;;9.11;65.95;100634.44;10445799;28;20462;-62
2024/02/05 20:04:39;;;;;;;18.35;3.92;;;;;;;9.11;66.19;100627.22;10452896;28;20076;-64
2024/02/05 20:09:41;;;;;;;12.35;2.80;;;;;;;9.03;66.34;100629.03;10446038;28;20503;-62
2024/02/05 20:14:43;;;;;;;14.57;3.05;;;;;;;9.00;66.26;100623.97;10445431;28;20049;-62
2024/02/05 20:19:44;;;;;;;7.97;3.10;;;;;;;8.96;66.26;100628.81;10442980;28;20045;-63
2024/02/05 20:24:46;;;;;;;15.70;2.10;;;;;;;8.93;66.63;100619.25;10448570;28;20392;-63
2024/02/05 20:29:48;;;;;;;9.45;2.58;;;;;;;8.84;67.09;100616.69;10457481;28;20055;-62
2024/02/05 20:34:50;;;;;;;9.95;2.60;;;;;;;8.80;67.04;100615.31;10451900;28;20051;-63
2024/02/05 20:39:51;;;;;;;11.15;3.10;;;;;;;8.80;67.10;100605.44;10446668;28;20048;-63
2024/02/05 20:44:54;;;;;;;10.30;2.20;;;;;;;8.76;67.11;100611.28;10451460;28;20053;-62
2024/02/05 20:49:55;;;;;;;10.27;2.63;;;;;;;8.72;67.17;100622.31;10447115;28;20060;-62
2024/02/05 20:54:58;;;;;;;15.25;3.78;;;;;;;8.74;67.47;100614.13;10452162;28;20060;-62
2024/02/05 21:00:00;;;;;;;12.60;3.72;;;;;;;8.68;67.38;100641.53;10448539;28;20068;-63
2024/02/05 21:05:03;;;;;;;12.02;3.47;;;;;;;8.72;67.28;100642.91;10453544;28;20056;-62
2024/02/05 21:10:06;;;;;;;7.95;2.53;;;;;;;8.76;67.27;100646.13;10446637;28;20049;-62
2024/02/05 21:15:09;;;;;;;11.18;2.70;;;;;;;8.86;66.66;100647.69;10452495;28;20056;-62
2024/02/05 21:20:10;;;;;;;6.20;2.30;;;;;;;8.98;66.70;100652.81;10443716;28;20045;-62
2024/02/05 21:25:13;;;;;;;12.88;2.22;;;;;;;9.08;66.20;100648.16;10443094;28;20059;-63
2024/02/05 21:30:15;;;;;;;9.80;2.33;;;;;;;9.10;66.24;100655.06;10449816;28;20056;-63
2024/02/05 21:35:17;;;;;;;10.10;3.00;;;;;;;9.18;66.14;100658.78;10442015;28;20045;-63
2024/02/05 21:40:18;;;;;;;9.68;2.17;;;;;;;9.28;65.96;100662.19;10436992;28;20052;-63
2024/02/05 21:45:20;;;;;;;16.27;2.55;;;;;;;9.38;65.60;100665.59;10452292;28;20071;-62
2024/02/05 21:50:22;;;;;;;9.35;3.17;;;;;;;9.29;66.02;100656.66;10445906;28;20455;-62
2024/02/05 21:55:23;;;;;;;17.55;4.10;;;;;;;9.42;65.82;100658.06;10441533;28;20116;-61
2024/02/05 22:00:25;;;;;;;11.20;2.70;;;;;;;9.44;65.71;100659.59;10444652;28;20044;-62
2024/02/05 22:05:27;;;;;;;7.97;2.88;;;;;;;9.53;65.51;100666.66;10452936;28;20053;-63
2024/02/05 22:10:29;;;;;;;9.57;3.20;;;;;;;9.56;65.37;100664.66;10457994;28;20075;-63
2024/02/05 22:15:30;;;;;;;17.27;4.35;;;;;;;9.55;65.80;100661.13;10442751;28;20052;-63
2024/02/05 22:20:33;;;;;;;11.40;4.07;;;;;;;9.54;65.78;100664.84;10432821;28;20059;-63
2024/02/05 22:25:35;;;;;;;9.02;3.00;;;;;;;9.50;65.65;100664.31;10448556;28;20136;-62
2024/02/05 22:30:37;;;;;;;5.60;2.28;;;;;;;9.59;65.49;100664.34;10440667;28;20573;-62
2024/02/05 22:35:38;;;;;;;15.25;3.35;;;;;;;9.59;65.49;100662.50;10451420;28;20088;-61
2024/02/05 22:40:40;;;;;;;8.43;2.80;;;;;;;9.59;65.61;100659.81;10448693;28;20111;-62
2024/02/05 22:45:42;;;;;;;8.27;2.78;;;;;;;9.58;65.35;100659.97;10449994;28;20068;-62
2024/02/05 22:50:43;;;;;;;12.05;3.28;;;;;;;9.57;65.29;100666.34;10441408;28;20493;-62
2024/02/05 22:55:45;;;;;;;11.68;2.25;;;;;;;9.54;65.36;100667.53;10453167;28;20468;-62
2024/02/05 23:00:46;;;;;;;8.73;2.75;;;;;;;9.60;65.31;100656.13;10450258;28;20131;-62
2024/02/05 23:05:48;;;;;;;12.88;2.58;;;;;;;9.63;64.99;100646.91;10448347;28;20503;-62
2024/02/05 23:10:49;;;;;;;16.08;2.75;;;;;;;9.63;65.07;100655.78;10449072;28;20073;-62